Decatur, OH (45115)

4:20 AM EDT on July 31, 2014 (GMT -0400)
North Adams High School (KOHSEAMA2) Elev 951 ft | 38.94 °N, 83.59 °W | Change Station

Current weather conditions updated 1 minute ago

Overcast
Overcast
59.5 °F
Feels Like 59.5 °F
N
0.0
Wind Variable Wind from SW

Today is forecast to be nearly the same temperature as yesterday.

Today
High -- | Low -- °F
--% Chance of Precip.
Yesterday
High -- | Low -- °F
Precip. -- in
6:35 AM 8:46 PM
Waxing Crescent, 17% visible
Pressure 30.07 in
Visibility 10.0 miles
Clouds Overcast 12000 ft
Dew Point 59 °F
Humidity 98%
Rainfall 0.00 in
Snow Depth Not available.
UV 0 out of 12
Pollen 6.50 out of 12
Air Quality Not available.
Flu Activity Not available.
METAR KI69 310814Z AUTO 00000KT 10SM OVC120 17/16 A3007 RMK AO1

More Conditions Fewer Conditions

Pressure 30.07 in
Visibility 10.0 miles
Clouds Overcast 12000 ft
Dew Point 59 °F
Humidity 98%
Rainfall 0.00 in
Snow Depth Not available.
UV 0 out of 12
Pollen 6.50 out of 12
Air Quality Not available.
Flu Activity Not available.
METAR KI69 310814Z AUTO 00000KT 10SM OVC120 17/16 A3007 RMK AO1

More Conditions Fewer Conditions

10-Day Weather Forecast

Almanac

Astronomy

Jul. 31, 2014 Rise Set
Actual Time 6:35 AM EDT 8:46 PM EDT
Civil Twilight 6:05 AM EDT 9:16 PM EDT
Nautical Twilight 5:28 AM EDT 9:52 PM EDT
Astronomical Twilight 4:48 AM EDT 10:32 PM EDT
Moon 10:58 AM EDT 11:02 PM EDT
Length of Visible Light 15h 11m
Length of Day
14h 11m
Tomorrow will be 1m 52s shorter.
Waxing Crescent, 17% of the Moon is Illuminated
Today
Waxing Crescent
Aug 3
First Quarter
Aug 10
Full
Aug 17
Last Quarter
Aug 25
New

Today's Extremes

State Highs State Lows

Community

WunderPhotos

Upload Photos

1,739,258 photos uploaded!

Nearby

Snow Depth

Station Depth Elevation
No new snow has been reported.

Earthquake Activity

City Distance Mag. Time & Date
No recent earthquake activity has been reported nearby.
Minimum magnitude displayed is 2.5.

Coastal Water Temperatures

Place Temperature
No Stations Reporting

Nearby Weather Stations

Station Location Temp. Dew Point Humidity Wind Precip. Elev Updated Type
North Adams High School, Seaman, OH 59.5 °F 59 °F 98% SW  at  0.0 mph 0.00 in / hr 951 ft 4:19 AM EDT Normal
Bon Haven Dr, Maysville, KY 61.2 °F 52 °F 72% South  at  0.0 mph 0.00 in / hr 896 ft 4:20 AM EDT Normal
Edge of Appalachia Preserve, West Union, OH 59.5 °F 59 °F 99% East  at  0.0 mph 0.00 in / hr 663 ft 4:20 AM EDT Rapid Fire
SW Ohio, Sardinia, OH 58.1 °F 58 °F 99% North  at  0.0 mph 0.00 in / hr 942 ft 4:18 AM EDT Normal
Polecat Pike, Maysville, KY 58.6 °F 58 °F 99% SSE  at  0.0 mph - / hr 866 ft 4:19 AM EDT Normal
Will's Point Weather Station, Mount Orab, OH 60.8 °F 59 °F 93% SE  at  3.1 mph 0.01 in / hr 938 ft 4:20 AM EDT Normal

Show More Stations Show Fewer Stations